createdAt,value
2022-11-20T00:00:05.029Z,7.20
2022-11-20T00:02:37.372Z,7.20
2022-11-20T00:05:08.304Z,7.20
2022-11-20T00:07:39.072Z,7.20
2022-11-20T00:10:10.199Z,7.30
2022-11-20T00:12:40.525Z,7.20
2022-11-20T00:15:14.204Z,7.30
2022-11-20T00:17:44.658Z,7.30
2022-11-20T00:20:16.071Z,7.20
2022-11-20T00:22:46.547Z,7.30
2022-11-20T00:25:16.903Z,7.20
2022-11-20T00:27:47.585Z,7.30
2022-11-20T00:30:22.872Z,7.20
2022-11-20T00:32:53.259Z,7.30
2022-11-20T00:35:23.529Z,7.30
2022-11-20T00:37:54.204Z,7.30
2022-11-20T00:40:24.588Z,7.20
2022-11-20T00:42:55.031Z,7.30
2022-11-20T00:45:27.894Z,7.20
2022-11-20T00:47:58.223Z,7.20
2022-11-20T00:50:28.551Z,7.30
2022-11-20T00:52:58.878Z,7.30
2022-11-20T00:55:29.101Z,7.30
2022-11-20T00:58:03.597Z,7.30
2022-11-20T01:00:37.347Z,7.30
2022-11-20T01:03:07.661Z,7.20
2022-11-20T01:05:39.194Z,7.30
2022-11-20T01:08:09.860Z,7.30
2022-11-20T01:10:40.290Z,7.30
2022-11-20T01:13:25.729Z,7.40
2022-11-20T01:15:58.850Z,7.30
2022-11-20T01:18:29.184Z,7.30
2022-11-20T01:20:59.511Z,7.30
2022-11-20T01:23:29.837Z,7.30
2022-11-20T01:26:00.104Z,7.30
2022-11-20T01:28:30.496Z,7.20
2022-11-20T01:31:03.540Z,7.30
2022-11-20T01:33:33.873Z,7.30
2022-11-20T01:36:09.131Z,7.20
2022-11-20T01:38:39.687Z,7.30
2022-11-20T01:41:11.306Z,7.20
2022-11-20T01:43:39.067Z,7.30
2022-11-20T01:46:18.931Z,7.30
2022-11-20T01:48:58.401Z,7.30
2022-11-20T01:51:33.222Z,7.20
2022-11-20T01:54:07.441Z,7.20
2022-11-20T01:56:42.993Z,7.40
2022-11-20T01:59:16.224Z,7.20
2022-11-20T02:01:49.705Z,7.20
2022-11-20T02:04:20.538Z,7.20
2022-11-20T02:06:55.273Z,7.20
2022-11-20T02:09:25.566Z,7.30
2022-11-20T02:11:56.604Z,7.20
2022-11-20T02:14:25.655Z,7.20
2022-11-20T02:16:59.242Z,7.20
2022-11-20T02:19:32.517Z,7.10
2022-11-20T02:22:09.623Z,7.20
2022-11-20T02:24:43.278Z,7.20
2022-11-20T02:27:16.215Z,7.10
2022-11-20T02:29:50.294Z,7.20
2022-11-20T02:32:24.364Z,7.10
2022-11-20T02:34:54.637Z,7.20
2022-11-20T02:37:25.733Z,7.10
2022-11-20T02:39:58.575Z,7.00
2022-11-20T02:42:28.935Z,7.10
2022-11-20T02:44:59.325Z,7.10
2022-11-20T02:47:29.588Z,7.10
2022-11-20T02:49:59.859Z,7.10
2022-11-20T02:52:30.553Z,7.10
2022-11-20T02:55:03.448Z,7.10
2022-11-20T02:57:33.718Z,7.10
2022-11-20T03:00:04.039Z,7.10
2022-11-20T03:02:34.732Z,7.00
2022-11-20T03:05:05.219Z,7.00
2022-11-20T03:07:35.516Z,7.10
2022-11-20T03:10:09.751Z,7.10
2022-11-20T03:12:40.062Z,7.10
2022-11-20T03:15:11.544Z,7.10
2022-11-20T03:17:41.921Z,7.10
2022-11-20T03:20:13.672Z,7.20
2022-11-20T03:22:44.011Z,7.10
2022-11-20T03:25:17.106Z,7.10
2022-11-20T03:27:47.476Z,7.10
2022-11-20T03:30:18.577Z,7.10
2022-11-20T03:32:48.916Z,7.20
2022-11-20T03:35:19.398Z,7.20
2022-11-20T03:37:49.768Z,7.10
2022-11-20T03:40:22.857Z,7.10
2022-11-20T03:42:53.185Z,7.10
2022-11-20T03:45:23.717Z,7.10
2022-11-20T03:47:54.561Z,7.10
2022-11-20T03:50:24.849Z,7.10
2022-11-20T03:52:55.116Z,7.10
2022-11-20T03:55:27.999Z,7.10
2022-11-20T03:57:58.283Z,7.10
2022-11-20T04:00:28.626Z,7.10
2022-11-20T04:03:02.483Z,7.20
2022-11-20T04:05:32.901Z,7.30
2022-11-20T04:08:03.325Z,7.20
2022-11-20T04:10:36.264Z,7.10
2022-11-20T04:13:06.645Z,7.10
2022-11-20T04:15:38.502Z,7.20
2022-11-20T04:18:09.147Z,7.20
2022-11-20T04:20:39.959Z,7.20
2022-11-20T04:23:10.311Z,7.20
2022-11-20T04:25:43.203Z,7.20
2022-11-20T04:28:13.843Z,7.10
2022-11-20T04:30:44.184Z,7.10
2022-11-20T04:33:14.799Z,7.20
2022-11-20T04:35:45.254Z,7.20
2022-11-20T04:38:15.556Z,7.30
2022-11-20T04:40:48.547Z,7.20
2022-11-20T04:43:18.874Z,7.20
2022-11-20T04:45:55.009Z,7.20
2022-11-20T04:48:25.870Z,7.10
2022-11-20T04:50:56.610Z,7.10
2022-11-20T04:53:27.767Z,7.10
2022-11-20T04:56:07.371Z,7.00
2022-11-20T04:58:38.478Z,7.10
2022-11-20T05:01:10.759Z,7.00
2022-11-20T05:03:42.511Z,7.00
2022-11-20T05:06:14.757Z,7.00
2022-11-20T05:08:45.391Z,7.00
2022-11-20T05:11:21.000Z,7.00
2022-11-20T05:13:51.720Z,7.20
2022-11-20T05:16:24.372Z,7.10
2022-11-20T05:18:55.714Z,7.10
2022-11-20T05:21:26.118Z,7.10
2022-11-20T05:23:56.366Z,7.10
2022-11-20T05:26:29.413Z,7.10
2022-11-20T05:28:59.800Z,7.00
2022-11-20T05:31:30.217Z,7.10
2022-11-20T05:34:01.264Z,7.10
2022-11-20T05:36:31.595Z,7.10
2022-11-20T05:39:02.143Z,7.10
2022-11-20T05:41:36.864Z,7.20
2022-11-20T05:44:07.427Z,7.20
2022-11-20T05:46:37.874Z,7.20
2022-11-20T05:49:08.196Z,7.20
2022-11-20T05:51:38.584Z,7.20
2022-11-20T05:54:08.902Z,7.10
2022-11-20T05:56:41.851Z,7.20
2022-11-20T05:59:12.331Z,7.10
2022-11-20T06:01:42.755Z,7.10
2022-11-20T06:04:12.983Z,7.10
2022-11-20T06:06:43.245Z,7.30
2022-11-20T06:09:13.539Z,7.20
2022-11-20T06:11:46.522Z,7.20
2022-11-20T06:14:16.804Z,7.20
2022-11-20T06:16:47.205Z,7.20
2022-11-20T06:19:17.775Z,7.20
2022-11-20T06:21:48.109Z,7.20
2022-11-20T06:24:18.488Z,7.20
2022-11-20T06:26:51.381Z,7.20
2022-11-20T06:29:22.068Z,7.30
2022-11-20T06:31:52.481Z,7.30
2022-11-20T06:34:22.996Z,7.20
2022-11-20T06:36:53.312Z,7.20
2022-11-20T06:39:23.946Z,7.20
2022-11-20T06:41:58.972Z,7.20
2022-11-20T06:44:29.703Z,7.30
2022-11-20T06:47:00.025Z,7.30
2022-11-20T06:49:30.491Z,7.30
2022-11-20T06:52:00.883Z,7.30
2022-11-20T06:54:31.321Z,7.30
2022-11-20T06:57:04.204Z,7.20
2022-11-20T06:59:34.478Z,7.30
2022-11-20T07:02:04.840Z,7.30
2022-11-20T07:04:35.228Z,7.30
2022-11-20T07:07:05.556Z,7.30
2022-11-20T07:09:35.952Z,7.30
2022-11-20T07:12:09.513Z,7.30
2022-11-20T07:14:39.791Z,7.30
2022-11-20T07:17:10.093Z,7.30
2022-11-20T07:19:40.440Z,7.20
2022-11-20T07:22:10.743Z,7.20
2022-11-20T07:24:45.841Z,7.20
2022-11-20T07:27:19.176Z,7.30
2022-11-20T07:29:49.527Z,7.20
2022-11-20T07:32:19.864Z,7.20
2022-11-20T07:34:50.353Z,7.20
2022-11-20T07:37:20.793Z,7.20
2022-11-20T07:39:51.050Z,7.40
2022-11-20T07:42:23.932Z,7.20
2022-11-20T07:44:54.976Z,7.30
2022-11-20T07:47:26.126Z,7.20
2022-11-20T07:49:56.442Z,7.20
2022-11-20T07:52:26.691Z,7.30
2022-11-20T07:54:56.949Z,7.30
2022-11-20T07:57:29.900Z,7.30
2022-11-20T08:00:00.229Z,7.30
2022-11-20T08:02:30.755Z,7.30
2022-11-20T08:05:00.987Z,7.30
2022-11-20T08:07:31.525Z,7.30
2022-11-20T08:10:01.869Z,7.30
2022-11-20T08:12:47.220Z,7.30
2022-11-20T08:15:17.605Z,7.40
2022-11-20T08:18:08.198Z,7.40
2022-11-20T08:20:39.019Z,7.40
2022-11-20T08:23:11.143Z,7.40
2022-11-20T08:25:42.197Z,7.50
2022-11-20T08:28:20.726Z,7.50
2022-11-20T08:30:52.185Z,7.50
2022-11-20T08:33:22.802Z,7.50
2022-11-20T08:35:53.038Z,7.60
2022-11-20T08:38:23.359Z,7.50
2022-11-20T08:41:05.859Z,7.50
2022-11-20T08:43:38.742Z,7.50
2022-11-20T08:46:09.279Z,7.50
2022-11-20T08:48:39.571Z,7.50
2022-11-20T08:51:10.259Z,7.70
2022-11-20T08:53:40.574Z,7.60
2022-11-20T08:56:11.556Z,7.60
2022-11-20T08:59:16.033Z,7.60
2022-11-20T09:01:36.160Z,7.60
2022-11-20T09:04:06.440Z,7.60
2022-11-20T09:06:36.674Z,7.60
2022-11-20T09:09:07.317Z,7.70
2022-11-20T09:11:38.923Z,7.70
2022-11-20T09:14:11.926Z,7.70
2022-11-20T09:16:42.338Z,7.70
2022-11-20T09:19:40.615Z,7.70
2022-11-20T09:22:03.068Z,7.70
2022-11-20T09:24:33.331Z,7.80
2022-11-20T09:27:06.846Z,7.80
2022-11-20T09:29:39.766Z,7.80
2022-11-20T09:32:10.323Z,7.80
2022-11-20T09:34:40.680Z,7.80
2022-11-20T09:37:10.916Z,7.90
2022-11-20T09:39:41.300Z,7.90
2022-11-20T09:42:35.472Z,7.90
2022-11-20T09:45:33.935Z,7.90
2022-11-20T09:48:08.631Z,7.90
2022-11-20T09:50:48.887Z,8.00
2022-11-20T09:53:29.139Z,7.90
2022-11-20T09:56:00.655Z,7.90
2022-11-20T09:58:36.739Z,8.00
2022-11-20T10:01:15.507Z,8.00
2022-11-20T10:03:54.382Z,8.00
2022-11-20T10:06:28.487Z,8.10
2022-11-20T10:09:07.413Z,8.10
2022-11-20T10:11:47.745Z,8.10
2022-11-20T10:14:28.753Z,8.10
2022-11-20T10:17:09.912Z,8.20
2022-11-20T10:19:56.030Z,8.20
2022-11-20T10:22:39.537Z,8.20
2022-11-20T10:25:17.543Z,8.20
2022-11-20T10:28:15.912Z,8.30
2022-11-20T10:30:47.005Z,8.30
2022-11-20T10:33:23.519Z,8.30
2022-11-20T10:35:59.035Z,8.30
2022-11-20T10:38:38.314Z,8.40
2022-11-20T10:41:22.961Z,8.40
2022-11-20T10:43:57.913Z,8.40
2022-11-20T10:46:29.510Z,8.50
2022-11-20T10:49:02.405Z,8.50
2022-11-20T10:51:41.401Z,8.50
2022-11-20T10:54:21.720Z,8.60
2022-11-20T10:56:54.881Z,8.60
2022-11-20T10:59:46.089Z,8.60
2022-11-20T11:02:21.829Z,8.70
2022-11-20T11:04:56.185Z,8.80
2022-11-20T11:07:31.516Z,8.90
2022-11-20T11:10:01.962Z,8.90
2022-11-20T11:12:33.028Z,8.90
2022-11-20T11:15:03.330Z,9.00
2022-11-20T11:17:38.330Z,9.00
2022-11-20T11:20:20.572Z,9.00
2022-11-20T11:22:52.567Z,9.00
2022-11-20T11:25:29.503Z,9.10
2022-11-20T11:28:01.527Z,9.10
2022-11-20T11:30:33.959Z,9.10
2022-11-20T11:33:10.432Z,9.10
2022-11-20T11:35:51.552Z,9.00
2022-11-20T11:38:27.106Z,9.20
2022-11-20T11:40:59.016Z,9.20
2022-11-20T11:43:44.981Z,9.20
2022-11-20T11:46:31.196Z,9.20
2022-11-20T11:49:03.059Z,9.20
2022-11-20T11:51:42.028Z,9.20
2022-11-20T11:54:20.471Z,9.20
2022-11-20T11:56:50.876Z,9.30
2022-11-20T11:59:28.117Z,9.30
2022-11-20T12:02:04.147Z,9.30
2022-11-20T12:04:47.496Z,9.40
2022-11-20T12:10:24.257Z,9.40
2022-11-20T12:13:03.368Z,9.40
2022-11-20T12:15:35.271Z,9.40
2022-11-20T12:18:05.887Z,9.40
2022-11-20T12:20:49.634Z,9.30
2022-11-20T12:23:29.149Z,9.30
2022-11-20T12:26:05.104Z,9.30
2022-11-20T12:28:50.122Z,9.30
2022-11-20T12:31:40.500Z,9.30
2022-11-20T12:34:28.211Z,9.30
2022-11-20T12:37:06.812Z,9.30
2022-11-20T12:39:44.800Z,9.20
2022-11-20T12:42:48.075Z,9.20
2022-11-20T12:45:39.410Z,9.20
2022-11-20T12:48:44.918Z,9.20
2022-11-20T12:51:42.728Z,9.20
2022-11-20T12:54:36.051Z,9.20
2022-11-20T12:57:14.025Z,9.20
2022-11-20T13:00:00.379Z,9.20
2022-11-20T13:02:44.284Z,9.30
2022-11-20T13:05:25.058Z,9.20
2022-11-20T13:07:57.480Z,9.20
2022-11-20T13:10:33.502Z,9.20
2022-11-20T13:13:16.094Z,9.20
2022-11-20T13:15:55.899Z,9.20
2022-11-20T13:18:26.475Z,9.20
2022-11-20T13:20:56.807Z,9.30
2022-11-20T13:23:31.337Z,9.30
2022-11-20T13:26:10.679Z,9.20
2022-11-20T13:28:44.340Z,9.20
2022-11-20T13:31:33.696Z,9.30
2022-11-20T13:34:08.111Z,9.20
2022-11-20T13:36:38.718Z,9.20
2022-11-20T13:39:09.317Z,9.20
2022-11-20T13:41:42.207Z,9.20
2022-11-20T13:44:27.106Z,9.20
2022-11-20T13:46:57.496Z,9.20
2022-11-20T13:49:33.348Z,9.30
2022-11-20T13:52:28.273Z,9.20
2022-11-20T13:55:15.865Z,9.20
2022-11-20T13:58:19.333Z,9.10
2022-11-20T14:00:59.116Z,9.20
2022-11-20T14:03:58.908Z,9.20
2022-11-20T14:06:32.462Z,9.10
2022-11-20T14:09:03.571Z,9.30
2022-11-20T14:11:34.814Z,9.10
2022-11-20T14:14:07.017Z,9.20
2022-11-20T14:16:40.882Z,9.20
2022-11-20T14:19:31.520Z,9.10
2022-11-20T14:22:21.610Z,9.10
2022-11-20T14:24:52.908Z,9.20
2022-11-20T14:27:25.271Z,9.20
2022-11-20T14:29:56.045Z,9.10
2022-11-20T14:32:38.738Z,9.10
2022-11-20T14:35:13.977Z,9.20
2022-11-20T14:37:45.466Z,9.20
2022-11-20T14:40:36.743Z,9.20
2022-11-20T14:43:21.636Z,9.10
2022-11-20T14:46:00.298Z,9.20
2022-11-20T14:48:37.874Z,9.10
2022-11-20T14:51:08.226Z,9.20
2022-11-20T14:53:38.514Z,9.10
2022-11-20T14:56:09.194Z,9.10
2022-11-20T14:58:39.448Z,9.10
2022-11-20T15:01:11.443Z,9.10
2022-11-20T15:03:45.354Z,9.10
2022-11-20T15:06:16.524Z,9.10
2022-11-20T15:08:55.530Z,9.10
2022-11-20T15:11:33.190Z,9.10
2022-11-20T15:14:08.938Z,9.10
2022-11-20T15:16:39.438Z,9.20
2022-11-20T15:19:21.919Z,9.20
2022-11-20T15:21:52.195Z,9.10
2022-11-20T15:24:23.538Z,9.10
2022-11-20T15:26:54.134Z,9.10
2022-11-20T15:29:26.345Z,9.10
2022-11-20T15:31:57.260Z,9.10
2022-11-20T15:34:31.819Z,9.10
2022-11-20T15:37:02.144Z,9.10
2022-11-20T15:39:32.380Z,9.10
2022-11-20T15:42:02.862Z,9.10
2022-11-20T15:44:33.118Z,9.10
2022-11-20T15:47:03.546Z,9.20
2022-11-20T15:49:36.490Z,9.10
2022-11-20T15:52:06.874Z,9.20
2022-11-20T15:54:37.143Z,9.10
2022-11-20T15:57:07.533Z,9.10
2022-11-20T15:59:40.987Z,9.20
2022-11-20T16:02:18.924Z,9.20
2022-11-20T16:04:52.086Z,9.20
2022-11-20T16:07:22.464Z,9.20
2022-11-20T16:09:52.700Z,9.10
2022-11-20T16:12:35.358Z,9.10
2022-11-20T16:15:17.939Z,9.10
2022-11-20T16:17:48.218Z,9.20
2022-11-20T16:20:21.107Z,9.10
2022-11-20T16:22:51.438Z,9.10
2022-11-20T16:25:21.751Z,9.10
2022-11-20T16:27:52.092Z,9.10
2022-11-20T16:30:22.367Z,9.20
2022-11-20T16:32:52.671Z,9.20
2022-11-20T16:35:25.617Z,9.10
2022-11-20T16:37:58.646Z,9.20
2022-11-20T16:40:29.343Z,9.10
2022-11-20T16:42:59.683Z,9.10
2022-11-20T16:45:33.729Z,9.20
2022-11-20T16:48:04.460Z,9.20
2022-11-20T16:50:37.350Z,9.20
2022-11-20T16:53:07.720Z,9.20
2022-11-20T16:55:37.983Z,9.20
2022-11-20T16:58:08.349Z,9.30
2022-11-20T17:00:40.613Z,9.30
2022-11-20T17:03:11.120Z,9.30
2022-11-20T17:05:43.956Z,9.30
2022-11-20T17:08:14.343Z,9.30
2022-11-20T17:10:44.679Z,9.30
2022-11-20T17:13:15.027Z,9.30
2022-11-20T17:15:45.242Z,9.30
2022-11-20T17:18:15.575Z,9.40
2022-11-20T17:20:55.102Z,9.30
2022-11-20T17:23:25.417Z,9.30
2022-11-20T17:25:55.704Z,9.30
2022-11-20T17:28:26.066Z,9.30
2022-11-20T17:30:56.278Z,9.20
2022-11-20T17:33:26.627Z,9.20
2022-11-20T17:35:59.637Z,9.20
2022-11-20T17:38:30.070Z,9.20
2022-11-20T17:41:06.529Z,9.20
2022-11-20T17:43:37.610Z,9.10
2022-11-20T17:46:08.999Z,9.10
2022-11-20T17:48:42.507Z,9.10
2022-11-20T17:51:16.829Z,9.00
2022-11-20T17:53:49.333Z,9.00
2022-11-20T17:56:32.237Z,9.00
2022-11-20T17:59:02.611Z,9.00
2022-11-20T18:01:32.940Z,9.00
2022-11-20T18:04:03.321Z,9.00
2022-11-20T18:06:36.153Z,9.00
2022-11-20T18:09:08.714Z,9.00
2022-11-20T18:11:40.973Z,9.00
2022-11-20T18:14:32.962Z,9.00
2022-11-20T18:17:05.420Z,9.00
2022-11-20T18:19:42.685Z,9.00
2022-11-20T18:22:22.996Z,9.00
2022-11-20T18:24:53.358Z,8.90
2022-11-20T18:27:24.633Z,9.00
2022-11-20T18:29:55.207Z,9.00
2022-11-20T18:32:26.271Z,9.00
2022-11-20T18:34:56.942Z,9.00
2022-11-20T18:37:29.878Z,9.10
2022-11-20T18:40:00.458Z,9.00
2022-11-20T18:42:43.218Z,9.00
2022-11-20T18:45:13.677Z,9.00
2022-11-20T18:47:44.222Z,9.00
2022-11-20T18:50:14.535Z,9.00
2022-11-20T18:52:48.115Z,9.00
2022-11-20T18:55:18.707Z,9.00
2022-11-20T18:57:48.980Z,9.00
2022-11-20T19:00:20.158Z,9.00
2022-11-20T19:02:50.526Z,9.10
2022-11-20T19:05:20.897Z,9.10
2022-11-20T19:07:53.776Z,9.10
2022-11-20T19:10:24.533Z,9.10
2022-11-20T19:12:55.315Z,9.10
2022-11-20T19:15:25.600Z,9.10
2022-11-20T19:17:57.756Z,9.10
2022-11-20T19:20:28.851Z,9.20
2022-11-20T19:23:01.905Z,9.10
2022-11-20T19:25:37.898Z,9.10
2022-11-20T19:28:09.041Z,9.20
2022-11-20T19:30:39.534Z,9.10
2022-11-20T19:33:09.864Z,9.20
2022-11-20T19:35:40.207Z,9.20
2022-11-20T19:38:13.118Z,9.20
2022-11-20T19:40:43.515Z,9.20
2022-11-20T19:43:13.882Z,9.20
2022-11-20T19:45:44.271Z,9.20
2022-11-20T19:48:14.603Z,9.20
2022-11-20T19:50:45.000Z,9.10
2022-11-20T19:53:18.717Z,9.30
2022-11-20T19:55:59.247Z,9.10
2022-11-20T19:58:31.747Z,9.20
2022-11-20T20:01:09.664Z,9.10
2022-11-20T20:03:40.572Z,9.10
2022-11-20T20:06:13.707Z,9.10
2022-11-20T20:08:47.725Z,9.10
2022-11-20T20:11:20.027Z,9.10
2022-11-20T20:13:50.936Z,9.10
2022-11-20T20:16:22.985Z,9.10
2022-11-20T20:18:56.854Z,9.10
2022-11-20T20:21:27.941Z,9.10
2022-11-20T20:24:01.940Z,9.10
2022-11-20T20:26:34.022Z,9.10
2022-11-20T20:29:05.220Z,9.10
2022-11-20T20:31:36.862Z,9.10
2022-11-20T20:34:07.543Z,9.10
2022-11-20T20:36:37.845Z,9.10
2022-11-20T20:39:13.034Z,9.10
2022-11-20T20:41:43.471Z,9.20
2022-11-20T20:44:26.142Z,9.10
2022-11-20T20:46:56.740Z,9.10
2022-11-20T20:49:27.057Z,9.10
2022-11-20T20:51:57.408Z,9.20
2022-11-20T20:54:34.179Z,9.10
2022-11-20T20:57:05.102Z,9.10
2022-11-20T20:59:35.433Z,9.00
2022-11-20T21:02:05.817Z,9.00
2022-11-20T21:04:36.120Z,9.00
2022-11-20T21:07:06.897Z,9.00
2022-11-20T21:09:40.090Z,9.00
2022-11-20T21:12:10.617Z,9.10
2022-11-20T21:14:41.012Z,9.00
2022-11-20T21:17:15.172Z,8.90
2022-11-20T21:19:46.127Z,9.00
2022-11-20T21:22:13.864Z,9.00
2022-11-20T21:24:46.816Z,9.00
2022-11-20T21:27:17.120Z,9.00
2022-11-20T21:29:47.342Z,8.90
2022-11-20T21:32:17.671Z,8.90
2022-11-20T21:34:47.924Z,8.90
2022-11-20T21:37:18.227Z,8.90
2022-11-20T21:39:53.400Z,8.90
2022-11-20T21:42:23.701Z,8.90
2022-11-20T21:44:53.910Z,8.90
2022-11-20T21:47:24.247Z,8.80
2022-11-20T21:49:54.442Z,8.80
2022-11-20T21:52:24.795Z,8.80
2022-11-20T21:54:57.700Z,8.80
2022-11-20T21:57:28.027Z,8.70
2022-11-20T21:59:58.223Z,8.80
2022-11-20T22:02:28.567Z,8.80
2022-11-20T22:04:59.036Z,8.70
2022-11-20T22:07:29.370Z,8.80
2022-11-20T22:10:02.287Z,8.70
2022-11-20T22:12:32.649Z,8.70
2022-11-20T22:15:00.325Z,8.60
2022-11-20T22:17:42.931Z,8.60
2022-11-20T22:20:14.004Z,8.60
2022-11-20T22:22:44.300Z,8.60
2022-11-20T22:25:17.352Z,8.60
2022-11-20T22:27:49.484Z,8.60
2022-11-20T22:30:19.971Z,8.60
2022-11-20T22:32:50.217Z,8.60
2022-11-20T22:35:20.644Z,8.50
2022-11-20T22:37:52.596Z,8.60
2022-11-20T22:40:25.501Z,8.60
2022-11-20T22:42:55.755Z,8.50
2022-11-20T22:45:26.087Z,8.50
2022-11-20T22:47:56.298Z,8.50
2022-11-20T22:50:26.606Z,8.50
2022-11-20T22:52:56.939Z,8.50
2022-11-20T22:55:29.799Z,8.50
2022-11-20T22:58:00.154Z,8.40
2022-11-20T23:00:30.391Z,8.40
2022-11-20T23:03:00.722Z,8.50
2022-11-20T23:05:31.004Z,8.50
2022-11-20T23:08:01.259Z,8.40
2022-11-20T23:10:34.275Z,8.40
2022-11-20T23:13:04.574Z,8.40
2022-11-20T23:15:37.445Z,8.40
2022-11-20T23:18:07.821Z,8.40
2022-11-20T23:20:39.142Z,8.40
2022-11-20T23:23:09.378Z,8.40
2022-11-20T23:25:42.254Z,8.50
2022-11-20T23:28:12.555Z,8.50
2022-11-20T23:30:42.912Z,8.40
2022-11-20T23:33:13.143Z,8.40
2022-11-20T23:35:43.426Z,8.50
2022-11-20T23:38:13.698Z,8.50
2022-11-20T23:40:50.069Z,8.50
2022-11-20T23:43:21.500Z,8.50
2022-11-20T23:45:53.486Z,8.50
2022-11-20T23:48:25.346Z,8.50
2022-11-20T23:50:55.670Z,8.50
2022-11-20T23:53:26.705Z,8.50
2022-11-20T23:56:01.253Z,8.50
2022-11-20T23:58:35.063Z,8.40
